Time;durP1;ratioP1;P1;durP2;ratioP2;P2;SDS_P1;SDS_P2;PMS_P1;PMS_P2;Temp;Humidity;BMP_temperature;BMP_pressure;BME280_temperature;BME280_humidity;BME280_pressure;Samples;Min_cycle;Max_cycle;Signal;HPM_P1;HPM_P2
2023/10/07 00:03:03;;;;;;;5.00;3.50;;;14.00;99.90;;;;;;10479790;28;20191;-77
2023/10/07 00:08:26;;;;;;;5.17;2.67;;;14.10;99.90;;;;;;10473681;28;20564;-78
2023/10/07 00:13:51;;;;;;;5.07;2.70;;;14.10;99.90;;;;;;10426722;28;20214;-78
2023/10/07 00:19:13;;;;;;;5.10;2.85;;;14.10;99.90;;;;;;10401391;28;20223;-78
2023/10/07 00:24:40;;;;;;;4.10;2.40;;;14.20;99.90;;;;;;10396794;28;20224;-77
2023/10/07 00:30:06;;;;;;;3.43;1.93;;;14.20;99.90;;;;;;10396368;28;20494;-79
2023/10/07 00:35:29;;;;;;;7.47;2.40;;;14.30;99.90;;;;;;10409612;28;20383;-79
2023/10/07 00:40:56;;;;;;;8.00;2.63;;;14.30;99.90;;;;;;10437332;28;20223;-79
2023/10/07 00:46:28;;;;;;;4.57;2.07;;;14.30;99.90;;;;;;10437142;28;20191;-78
2023/10/07 00:51:51;;;;;;;4.43;2.50;;;14.40;99.90;;;;;;10457813;28;20281;-79
2023/10/07 00:57:23;;;;;;;4.67;2.30;;;;;;;;;;10476867;28;20241;-77
2023/10/07 01:02:45;;;;;;;3.20;2.33;;;14.40;99.90;;;;;;10477826;28;20382;-80
2023/10/07 01:08:07;;;;;;;3.43;1.80;;;;;;;;;;10427900;28;20238;-76
2023/10/07 01:13:31;;;;;;;2.77;2.17;;;14.50;99.90;;;;;;10438737;28;20226;-79
2023/10/07 01:18:59;;;;;;;2.33;1.93;;;14.40;99.90;;;;;;10410437;28;20430;-80
2023/10/07 01:24:34;;;;;;;2.87;1.97;;;;;;;;;;10446856;28;20246;-79
2023/10/07 01:30:06;;;;;;;2.75;2.05;;;14.40;99.90;;;;;;10465318;28;20203;-78
2023/10/07 01:35:32;;;;;;;4.10;2.23;;;;;;;;;;10448956;28;20422;-78
2023/10/07 01:41:05;;;;;;;3.83;1.90;;;;;;;;;;10467977;28;20235;-79
2023/10/07 01:46:27;;;;;;;3.80;2.03;;;14.30;99.90;;;;;;10447139;28;20198;-78
2023/10/07 01:51:52;;;;;;;4.67;1.97;;;14.60;99.90;;;;;;10463882;28;20201;-77
2023/10/07 01:57:15;;;;;;;2.67;1.83;;;14.40;99.90;;;;;;10462091;28;20253;-80
2023/10/07 02:02:43;;;;;;;3.60;2.30;;;14.60;99.90;;;;;;10448236;28;20202;-80
2023/10/07 02:08:10;;;;;;;3.97;2.00;;;14.40;99.90;;;;;;10468076;28;20237;-78
2023/10/07 02:13:31;;;;;;;2.80;2.30;;;14.50;99.90;;;;;;10453039;28;20207;-78
2023/10/07 02:18:53;;;;;;;3.90;2.50;;;;;;;;;;10408097;28;20416;-79
2023/10/07 02:24:15;;;;;;;4.60;2.50;;;;;;;;;;10457121;28;20203;-78
2023/10/07 02:29:41;;;;;;;2.80;2.20;;;;;;;;;;10448366;28;20267;-79
2023/10/07 02:35:09;;;;;;;4.43;2.13;;;;;;;;;;10439442;28;20214;-79
2023/10/07 02:40:36;;;;;;;1.90;1.80;;;;;;;;;;10454348;28;20239;-78
2023/10/07 02:46:00;;;;;;;3.10;2.37;;;14.90;99.90;;;;;;10441776;28;20194;-80
2023/10/07 02:51:22;;;;;;;6.77;2.37;;;14.90;99.90;;;;;;10438232;28;20214;-79
2023/10/07 02:56:44;;;;;;;1.70;1.60;;;;;;;;;;10425651;28;20221;-77
2023/10/07 03:07:41;;;;;;;3.03;1.30;;;15.10;99.90;;;;;;10438990;28;21420;-77
2023/10/07 03:13:03;;;;;;;4.05;1.38;;;15.20;99.90;;;;;;10435074;28;20528;-78
2023/10/07 03:18:30;;;;;;;3.40;1.37;;;15.30;99.90;;;;;;10440168;28;20229;-79
2023/10/07 03:23:58;;;;;;;6.17;1.40;;;15.20;99.90;;;;;;10440078;28;20246;-78
2023/10/07 03:29:31;;;;;;;3.15;1.15;;;16.20;99.90;;;;;;10436930;28;20208;-80
2023/10/07 03:34:52;;;;;;;1.90;1.02;;;15.30;1.00;;;;;;10440031;28;20261;-79
2023/10/07 03:40:25;;;;;;;1.83;1.10;;;;;;;;;;10454599;28;20281;-78
2023/10/07 03:45:48;;;;;;;2.25;1.15;;;;;;;;;;10449928;28;20196;-79
2023/10/07 03:51:12;;;;;;;5.38;1.38;;;;;;;;;;10452074;28;20197;-80
2023/10/07 03:56:34;;;;;;;2.60;1.10;;;15.40;1.00;;;;;;10451238;28;20430;-77
2023/10/07 04:01:56;;;;;;;2.45;1.20;;;15.40;51.30;;;;;;10477904;28;20227;-80
2023/10/07 04:07:17;;;;;;;3.20;1.20;;;15.40;1.00;;;;;;10479539;28;20242;-79
2023/10/07 04:12:39;;;;;;;11.25;1.23;;;;;;;;;;10472569;28;20211;-80
2023/10/07 04:18:01;;;;;;;1.90;0.90;;;;;;;;;;10438057;28;20270;-76
2023/10/07 04:23:26;;;;;;;5.75;1.00;;;;;;;;;;10437662;28;20203;-78
2023/10/07 04:28:48;;;;;;;4.03;1.13;;;15.30;99.90;;;;;;10436434;28;20436;-78
2023/10/07 04:34:11;;;;;;;6.32;1.60;;;15.20;99.90;;;;;;10437545;28;20191;-77
2023/10/07 04:40:27;;;;;;;3.73;1.30;;;15.20;99.90;;;;;;10436929;28;20304;-77
2023/10/07 04:45:35;;;;;;;3.55;1.63;;;15.30;99.90;;;;;;10462295;28;20202;-79
2023/10/07 04:51:03;;;;;;;10.30;2.72;;;;;;;;;;10449698;28;20199;-79
2023/10/07 04:56:27;;;;;;;16.45;3.60;;;;;;;;;;10450671;28;20315;-79
2023/10/07 05:01:56;;;;;;;17.70;3.67;;;;;;;;;;10448406;28;20218;-78
2023/10/07 05:07:24;;;;;;;17.07;4.00;;;;;;;;;;10462279;28;20238;-78
2023/10/07 05:12:45;;;;;;;12.10;2.83;;;15.00;99.90;;;;;;10461277;28;20201;-78
2023/10/07 05:18:06;;;;;;;14.23;2.93;;;14.30;73.50;;;;;;10449183;28;20269;-78
2023/10/07 05:23:28;;;;;;;22.10;4.10;;;14.90;99.90;;;;;;10436278;28;20192;-79
2023/10/07 05:28:49;;;;;;;17.27;3.87;;;14.80;1.00;;;;;;10434813;28;20203;-77
2023/10/07 05:34:11;;;;;;;11.63;2.63;;;14.70;99.90;;;;;;10448853;28;20274;-78
2023/10/07 05:39:32;;;;;;;19.83;3.40;;;14.70;1.00;;;;;;10434537;28;20231;-78
2023/10/07 05:44:53;;;;;;;14.10;3.17;;;14.60;1.00;;;;;;10434515;28;20453;-79
2023/10/07 05:50:15;;;;;;;16.00;2.77;;;14.60;1.00;;;;;;10435531;28;20275;-78
2023/10/07 05:55:36;;;;;;;19.93;3.77;;;14.60;1.00;;;;;;10435336;28;20233;-78
2023/10/07 06:00:58;;;;;;;21.00;3.30;;;14.50;1.00;;;;;;10465656;28;20489;-78
2023/10/07 06:06:20;;;;;;;16.90;3.80;;;14.50;1.00;;;;;;10478644;28;20278;-79
2023/10/07 06:11:42;;;;;;;15.97;3.50;;;14.40;1.00;;;;;;10476679;28;20530;-78
2023/10/07 06:17:07;;;;;;;11.23;2.43;;;14.40;1.00;;;;;;10442252;28;20203;-79
2023/10/07 06:22:28;;;;;;;15.33;2.67;;;14.40;1.00;;;;;;10441195;28;20246;-77
2023/10/07 06:27:50;;;;;;;15.67;3.10;;;14.30;1.00;;;;;;10452818;28;20211;-78
2023/10/07 06:33:13;;;;;;;17.73;3.43;;;14.20;1.00;;;;;;10442089;28;20191;-78
2023/10/07 06:38:34;;;;;;;19.00;3.33;;;14.20;1.00;;;;;;10441921;28;20222;-79
2023/10/07 06:44:08;;;;;;;23.13;3.83;;;14.10;99.90;;;;;;10440524;28;20429;-78
2023/10/07 06:49:34;;;;;;;22.60;4.07;;;14.20;1.00;;;;;;10441656;28;20204;-78
2023/10/07 06:54:56;;;;;;;14.63;4.20;;;14.20;1.00;;;;;;10461926;28;20199;-78
2023/10/07 07:00:27;;;;;;;16.90;3.67;;;14.10;1.00;;;;;;10480945;28;20452;-76
2023/10/07 07:05:49;;;;;;;13.27;3.50;;;14.00;1.00;;;;;;10456269;28;20211;-78
2023/10/07 07:11:11;;;;;;;12.63;3.03;;;14.00;1.00;;;;;;10438297;28;20231;-78
2023/10/07 07:16:41;;;;;;;17.53;2.90;;;14.10;1.00;;;;;;10431053;28;20231;-79
2023/10/07 07:22:02;;;;;;;13.60;3.30;;;14.20;1.00;;;;;;10439233;28;20589;-76
2023/10/07 07:27:24;;;;;;;19.98;3.78;;;14.30;1.00;;;;;;10456053;28;20196;-79
2023/10/07 07:32:55;;;;;;;12.83;2.83;;;14.40;1.00;;;;;;10435296;28;20207;-78
2023/10/07 07:43:42;;;;;;;14.25;4.00;;;15.30;99.90;;;;;;10424323;28;20395;-79
2023/10/07 07:49:06;;;;;;;12.30;2.33;;;15.20;99.90;;;;;;10437568;28;20192;-78
2023/10/07 07:54:29;;;;;;;10.43;2.72;;;15.20;99.90;;;;;;10479539;28;20203;-79
2023/10/07 07:59:50;;;;;;;12.75;3.20;;;15.10;99.90;;;;;;10479112;28;20232;-75
2023/10/07 08:05:13;;;;;;;12.90;2.47;;;15.20;95.00;;;;;;10475327;28;20540;-79
2023/10/07 08:10:35;;;;;;;18.65;3.50;;;15.60;49.40;;;;;;10448749;28;20234;-78
2023/10/07 08:15:56;;;;;;;13.90;3.00;;;15.50;1.00;;;;;;10436567;28;20205;-77
2023/10/07 08:21:18;;;;;;;9.50;2.63;;;15.30;13.20;;;;;;10437695;28;20265;-76
2023/10/07 08:26:48;;;;;;;13.68;2.58;;;15.30;50.70;;;;;;10436486;28;20286;-79
2023/10/07 08:32:28;;;;;;;13.80;3.00;;;15.40;1.00;;;;;;10435946;28;20228;-77
2023/10/07 08:37:49;;;;;;;18.98;3.15;;;15.50;1.00;;;;;;10437210;28;20198;-78
2023/10/07 08:43:16;;;;;;;12.90;3.28;;;15.40;1.00;;;;;;10435826;28;20212;-78
2023/10/07 08:48:42;;;;;;;9.82;3.00;;;15.40;1.00;;;;;;10452676;28;20200;-77
2023/10/07 08:54:10;;;;;;;20.55;2.97;;;15.50;1.00;;;;;;10445733;28;20510;-78
2023/10/07 08:59:32;;;;;;;13.35;3.15;;;15.60;1.00;;;;;;10435559;28;20226;-78
2023/10/07 09:04:58;;;;;;;12.02;2.65;;;15.70;1.00;;;;;;10451907;28;20272;-80
2023/10/07 09:10:19;;;;;;;18.83;2.92;;;15.90;1.00;;;;;;10477573;28;20264;-79
2023/10/07 09:15:42;;;;;;;21.05;2.97;;;16.00;1.00;;;;;;10435605;28;20201;-78
2023/10/07 09:21:09;;;;;;;9.32;2.70;;;16.10;1.00;;;;;;10435734;28;20227;-78
2023/10/07 09:26:33;;;;;;;11.52;2.60;;;17.30;1.00;;;;;;10435932;28;20195;-78
2023/10/07 09:32:37;;;;;;;15.65;3.30;;;18.20;1.00;;;;;;10447840;28;20199;-77
2023/10/07 09:37:40;;;;;;;12.18;3.00;;;19.00;1.00;;;;;;10435812;28;20184;-78
2023/10/07 09:43:04;;;;;;;13.93;2.95;;;18.70;1.00;;;;;;10440772;28;20196;-79
2023/10/07 09:48:31;;;;;;;8.38;2.20;;;18.50;1.00;;;;;;10442863;28;20223;-77
2023/10/07 09:54:26;;;;;;;7.80;2.08;;;18.40;1.00;;;;;;10459125;28;20199;-77
2023/10/07 09:59:59;;;;;;;10.43;2.45;;;17.60;1.00;;;;;;10442259;28;20218;-75
2023/10/07 10:05:50;;;;;;;7.00;2.30;;;17.30;1.00;;;;;;10439562;28;20393;-79
2023/10/07 10:11:30;;;;;;;6.70;1.80;;;17.30;1.00;;;;;;10424841;28;20413;-77
2023/10/07 10:16:59;;;;;;;8.27;2.25;;;17.10;1.00;;;;;;10436028;28;20255;-79
2023/10/07 10:22:24;;;;;;;8.07;2.85;;;17.20;1.00;;;;;;10440383;28;20231;-78
2023/10/07 10:27:47;;;;;;;4.97;2.17;;;17.30;1.00;;;;;;10455794;28;20209;-77
2023/10/07 10:33:19;;;;;;;8.18;2.08;;;17.40;1.00;;;;;;10440102;28;20214;-79
2023/10/07 10:38:45;;;;;;;4.70;1.52;;;16.90;1.00;;;;;;10441545;28;20235;-79
2023/10/07 10:44:10;;;;;;;3.08;1.50;;;16.70;1.00;;;;;;10440222;28;20384;-79
2023/10/07 10:49:32;;;;;;;1.65;0.80;;;16.90;1.00;;;;;;10457137;28;20462;-78
2023/10/07 10:54:53;;;;;;;3.97;1.48;;;17.00;1.00;;;;;;10440057;28;20205;-79
2023/10/07 11:00:21;;;;;;;4.13;1.52;;;17.00;99.90;;;;;;10480021;28;20228;-79
2023/10/07 11:05:42;;;;;;;2.30;1.00;;;17.10;99.90;;;;;;10481148;28;20274;-79
2023/10/07 11:11:10;;;;;;;4.18;1.80;;;17.20;99.90;;;;;;10476897;28;20233;-77
2023/10/07 11:16:43;;;;;;;3.35;1.10;;;17.20;99.90;;;;;;10455152;28;20292;-78
2023/10/07 11:22:05;;;;;;;5.32;1.38;;;17.00;99.90;;;;;;10452246;28;20306;-77
2023/10/07 11:27:26;;;;;;;2.17;1.00;;;17.20;99.90;;;;;;10453246;28;20196;-78
2023/10/07 11:32:48;;;;;;;4.60;1.30;;;17.00;99.90;;;;;;10438605;28;20280;-80
2023/10/07 11:38:13;;;;;;;2.92;1.17;;;16.80;99.90;;;;;;10439369;28;20202;-78
2023/10/07 11:43:43;;;;;;;2.35;0.90;;;17.80;99.90;;;;;;10438439;28;20214;-78
2023/10/07 11:49:04;;;;;;;3.05;1.00;;;17.90;99.90;;;;;;10436354;28;20294;-79
2023/10/07 11:54:25;;;;;;;2.72;1.17;;;17.70;99.90;;;;;;10439146;28;20196;-77
2023/10/07 11:59:46;;;;;;;4.30;1.05;;;17.40;99.90;;;;;;10438832;28;20270;-79
2023/10/07 12:05:10;;;;;;;1.30;0.80;;;17.10;99.90;;;;;;10473998;28;20199;-77
2023/10/07 12:10:39;;;;;;;3.17;1.25;;;;;;;;;;10472897;28;20486;-77
2023/10/07 12:16:00;;;;;;;1.88;0.80;;;16.20;99.90;;;;;;10411047;28;20205;-77
2023/10/07 12:21:26;;;;;;;1.05;0.80;;;16.10;99.90;;;;;;10437838;28;20323;-78
2023/10/07 12:26:52;;;;;;;1.00;0.82;;;16.00;99.90;;;;;;10434855;28;20257;-77
2023/10/07 12:32:13;;;;;;;2.47;1.05;;;;;;;;;;10450682;28;20282;-79
2023/10/07 12:37:39;;;;;;;1.02;0.68;;;15.70;99.90;;;;;;10435897;28;20236;-78
2023/10/07 12:43:01;;;;;;;1.40;0.50;;;15.50;99.90;;;;;;10434890;28;20237;-77
2023/10/07 12:48:22;;;;;;;1.70;0.88;;;15.40;99.90;;;;;;10436918;28;20195;-78
2023/10/07 12:53:45;;;;;;;1.92;1.00;;;;;;;;;;10436857;28;20191;-78
2023/10/07 12:59:18;;;;;;;2.15;0.98;;;15.20;99.90;;;;;;10469318;28;20432;-76
2023/10/07 13:04:42;;;;;;;2.08;1.30;;;15.20;99.90;;;;;;10471529;28;20201;-75
2023/10/07 13:10:03;;;;;;;2.17;1.00;;;15.20;99.90;;;;;;10476714;28;20229;-76
2023/10/07 13:15:37;;;;;;;2.28;1.10;;;15.60;99.90;;;;;;10435474;28;20230;-79
2023/10/07 13:20:59;;;;;;;2.00;0.93;;;16.10;99.90;;;;;;10448683;28;20229;-76
2023/10/07 13:26:20;;;;;;;1.10;0.60;;;16.40;99.90;;;;;;10436093;28;20191;-78
2023/10/07 13:31:41;;;;;;;1.45;0.77;;;16.40;99.90;;;;;;10432451;28;20205;-79
2023/10/07 13:37:06;;;;;;;2.53;1.23;;;15.90;99.90;;;;;;10435932;28;20372;-78
2023/10/07 13:42:30;;;;;;;2.03;1.08;;;15.60;99.90;;;;;;10434544;28;20233;-77
2023/10/07 13:48:11;;;;;;;1.48;0.75;;;15.30;99.90;;;;;;10434105;28;20537;-78
2023/10/07 13:53:51;;;;;;;2.08;1.15;;;15.00;99.90;;;;;;10450953;28;20198;-76
2023/10/07 13:59:12;;;;;;;3.38;1.27;;;14.70;99.90;;;;;;10435474;28;20237;-78
2023/10/07 14:04:33;;;;;;;3.13;1.60;;;14.70;99.90;;;;;;10460089;28;20207;-77
2023/10/07 14:09:54;;;;;;;3.57;1.00;;;14.50;99.90;;;;;;10437281;28;20240;-76
2023/10/07 14:15:15;;;;;;;3.95;0.90;;;14.40;99.90;;;;;;10433478;28;20238;-77
2023/10/07 14:20:41;;;;;;;1.55;0.88;;;14.20;99.90;;;;;;10450347;28;20278;-76
2023/10/07 14:26:03;;;;;;;1.90;0.85;;;14.20;99.90;;;;;;10433907;28;20215;-76
2023/10/07 14:31:25;;;;;;;2.30;1.50;;;14.10;99.90;;;;;;10441939;28;20200;-78
2023/10/07 14:36:56;;;;;;;2.13;0.93;;;14.00;99.90;;;;;;10456093;28;20264;-78
2023/10/07 14:42:20;;;;;;;1.30;0.87;;;14.00;99.90;;;;;;10441873;28;20447;-77
2023/10/07 14:47:41;;;;;;;4.23;1.23;;;13.90;99.90;;;;;;10440372;28;20394;-79
2023/10/07 14:53:04;;;;;;;0.93;0.80;;;13.80;99.90;;;;;;10458373;28;20203;-76
2023/10/07 14:58:30;;;;;;;1.63;0.80;;;13.80;99.90;;;;;;10440994;28;20416;-78
2023/10/07 15:03:53;;;;;;;2.70;1.17;;;13.70;99.90;;;;;;10413144;28;20292;-78
2023/10/07 15:09:21;;;;;;;2.00;1.20;;;13.70;99.90;;;;;;10436981;28;20285;-78
2023/10/07 15:14:42;;;;;;;1.40;1.00;;;13.70;99.90;;;;;;10440067;28;20209;-77
2023/10/07 15:20:05;;;;;;;3.87;1.53;;;13.70;99.90;;;;;;10452139;28;20240;-78
2023/10/07 15:25:27;;;;;;;2.25;1.17;;;13.60;99.90;;;;;;10439096;28;20202;-79
2023/10/07 15:30:49;;;;;;;5.20;2.00;;;13.60;99.90;;;;;;10439926;28;20191;-79
2023/10/07 15:36:11;;;;;;;2.03;1.57;;;13.50;99.90;;;;;;10439782;28;20242;-78
2023/10/07 15:41:32;;;;;;;3.13;1.47;;;13.40;99.90;;;;;;10437923;28;20232;-79
2023/10/07 15:46:55;;;;;;;2.90;1.67;;;13.40;99.90;;;;;;10438716;28;20191;-79
2023/10/07 15:52:16;;;;;;;2.93;1.37;;;13.30;99.90;;;;;;10441036;28;20505;-78
2023/10/07 15:57:37;;;;;;;1.57;1.10;;;13.30;99.90;;;;;;10438743;28;20199;-77
2023/10/07 16:02:59;;;;;;;2.77;1.40;;;13.10;99.90;;;;;;10446185;28;20470;-79
2023/10/07 16:08:20;;;;;;;15.87;11.63;;;13.10;99.90;;;;;;10478486;28;20441;-79
2023/10/07 16:13:41;;;;;;;30.80;22.03;;;13.10;99.90;;;;;;10443223;28;20211;-79
2023/10/07 16:19:06;;;;;;;17.17;11.83;;;13.00;99.90;;;;;;10397238;28;20215;-79
2023/10/07 16:24:28;;;;;;;9.67;4.30;;;13.00;99.90;;;;;;10448679;28;20199;-78
2023/10/07 16:29:50;;;;;;;6.90;3.73;;;12.90;99.90;;;;;;10462161;28;20502;-78
2023/10/07 16:35:11;;;;;;;3.93;2.90;;;12.90;99.90;;;;;;10436649;28;20293;-80
2023/10/07 16:40:32;;;;;;;3.67;2.53;;;12.90;99.90;;;;;;10436839;28;20302;-78
2023/10/07 16:45:53;;;;;;;2.57;2.13;;;12.90;99.90;;;;;;10433763;28;20427;-77
2023/10/07 16:51:14;;;;;;;33.13;17.87;;;12.80;99.90;;;;;;10404634;28;20215;-80
2023/10/07 16:56:36;;;;;;;107.87;69.80;;;12.80;99.90;;;;;;10470293;28;20212;-79
2023/10/07 17:02:00;;;;;;;74.23;49.87;;;12.80;99.90;;;;;;10435691;28;20250;-81
2023/10/07 17:07:21;;;;;;;33.37;20.80;;;12.80;99.90;;;;;;10432832;28;20272;-79
2023/10/07 17:12:43;;;;;;;17.07;10.20;;;12.80;99.90;;;;;;10447833;28;20489;-78
2023/10/07 17:18:06;;;;;;;12.47;5.90;;;12.80;1.00;;;;;;10433543;28;20194;-78
2023/10/07 17:23:27;;;;;;;11.20;6.23;;;12.70;1.00;;;;;;10426268;28;20253;-80
2023/10/07 17:28:49;;;;;;;7.17;3.37;;;12.70;1.00;;;;;;10434057;28;20283;-76
2023/10/07 17:34:10;;;;;;;3.20;2.20;;;12.70;1.00;;;;;;10440018;28;20298;-77
2023/10/07 17:39:31;;;;;;;4.57;2.20;;;12.70;1.00;;;;;;10460665;28;20219;-77
2023/10/07 17:44:52;;;;;;;4.60;2.97;;;12.60;1.00;;;;;;10451508;28;20203;-79
2023/10/07 17:50:15;;;;;;;10.90;4.63;;;12.50;1.00;;;;;;10432458;28;20195;-78
2023/10/07 17:55:37;;;;;;;26.60;10.63;;;12.50;1.00;;;;;;10435646;28;20467;-79
2023/10/07 18:01:01;;;;;;;26.03;11.63;;;12.50;1.00;;;;;;10448889;28;20317;-79
2023/10/07 18:06:22;;;;;;;24.67;10.17;;;12.50;1.00;;;;;;10440902;28;20195;-78
2023/10/07 18:11:43;;;;;;;19.10;9.53;;;12.40;1.00;;;;;;10441606;28;20226;-77
2023/10/07 18:17:05;;;;;;;11.40;6.50;;;12.40;1.00;;;;;;10435391;28;20205;-78
2023/10/07 18:22:26;;;;;;;12.90;6.77;;;12.40;1.00;;;;;;10455352;28;20235;-79
2023/10/07 18:27:47;;;;;;;28.27;21.60;;;12.30;1.00;;;;;;10450675;28;20203;-79
2023/10/07 18:33:10;;;;;;;15.73;11.07;;;12.40;1.00;;;;;;10439663;28;20214;-77
2023/10/07 18:38:32;;;;;;;8.70;5.90;;;12.40;1.00;;;;;;10436368;28;20245;-80
2023/10/07 18:43:53;;;;;;;5.20;3.87;;;12.30;1.00;;;;;;10439043;28;20450;-77
2023/10/07 18:49:15;;;;;;;10.10;5.27;;;12.30;1.00;;;;;;10439255;28;20396;-78
2023/10/07 18:54:36;;;;;;;23.13;10.23;;;12.20;1.00;;;;;;10440191;28;20202;-80
2023/10/07 18:59:58;;;;;;;20.20;10.00;;;12.20;1.00;;;;;;10439805;28;20221;-77
2023/10/07 19:05:19;;;;;;;14.33;6.80;;;12.20;1.00;;;;;;10415639;28;20203;-79
2023/10/07 19:10:41;;;;;;;6.93;4.47;;;12.10;1.00;;;;;;10430069;28;20297;-78
2023/10/07 19:16:03;;;;;;;6.43;3.90;;;12.00;1.00;;;;;;10433817;28;20207;-80
2023/10/07 19:21:24;;;;;;;10.27;6.87;;;11.90;1.00;;;;;;10437354;28;20221;-77
2023/10/07 19:26:45;;;;;;;9.43;6.20;;;11.80;1.00;;;;;;10452838;28;20203;-80
2023/10/07 19:32:07;;;;;;;15.37;7.67;;;11.70;1.00;;;;;;10449910;28;20208;-78
2023/10/07 19:37:28;;;;;;;30.73;18.80;;;11.60;1.00;;;;;;10450609;28;20194;-78
2023/10/07 19:42:49;;;;;;;14.40;8.13;;;11.60;43.50;;;;;;10459193;28;20224;-79
2023/10/07 19:48:11;;;;;;;14.20;6.87;;;11.50;15.00;;;;;;10457360;28;20192;-76
2023/10/07 19:53:33;;;;;;;14.53;7.50;;;11.50;37.10;;;;;;10466696;28;20201;-79
2023/10/07 19:58:54;;;;;;;11.83;6.43;;;11.60;46.50;;;;;;10458823;28;20222;-77
2023/10/07 20:04:15;;;;;;;10.03;5.53;;;11.50;39.10;;;;;;10486360;28;20263;-78
2023/10/07 20:09:36;;;;;;;5.67;3.67;;;11.50;24.00;;;;;;10438798;28;20235;-78
2023/10/07 20:14:58;;;;;;;3.80;2.40;;;11.50;20.10;;;;;;10437558;28;20396;-77
2023/10/07 20:20:19;;;;;;;26.53;19.00;;;11.50;18.20;;;;;;10437841;28;20296;-79
2023/10/07 20:25:41;;;;;;;45.43;34.27;;;11.50;1.00;;;;;;10433216;28;20513;-79
2023/10/07 20:31:06;;;;;;;18.03;13.67;;;11.50;26.40;;;;;;10438014;28;20191;-79
2023/10/07 20:36:28;;;;;;;10.17;6.00;;;11.50;45.20;;;;;;10452872;28;20213;-78
2023/10/07 20:41:49;;;;;;;4.80;3.00;;;11.50;64.30;;;;;;10435096;28;20236;-78
2023/10/07 20:47:11;;;;;;;3.87;2.73;;;11.50;38.70;;;;;;10452701;28;20304;-78
2023/10/07 20:52:33;;;;;;;3.30;2.30;;;11.40;19.00;;;;;;10446748;28;20193;-79
2023/10/07 20:57:54;;;;;;;6.27;4.00;;;11.40;34.20;;;;;;10459211;28;20273;-79
2023/10/07 21:03:15;;;;;;;8.90;4.00;;;11.40;85.50;;;;;;10435384;28;20253;-77
2023/10/07 21:08:36;;;;;;;21.17;13.13;;;11.40;27.40;;;;;;10421436;28;20557;-77
2023/10/07 21:13:58;;;;;;;79.50;53.50;;;11.50;18.40;;;;;;10431119;28;20195;-77
2023/10/07 21:19:19;;;;;;;34.27;24.87;;;11.40;1.00;;;;;;10422033;28;20277;-79
2023/10/07 21:24:40;;;;;;;8.43;6.33;;;11.30;1.00;;;;;;10435079;28;20430;-77
2023/10/07 21:30:03;;;;;;;6.87;3.83;;;11.30;1.00;;;;;;10432577;28;20282;-78
2023/10/07 21:35:25;;;;;;;4.70;2.90;;;11.20;1.00;;;;;;10434564;28;20498;-78
2023/10/07 21:40:47;;;;;;;6.33;3.53;;;11.20;1.00;;;;;;10459435;28;20224;-78
2023/10/07 21:46:11;;;;;;;7.60;3.70;;;11.20;1.00;;;;;;10454521;28;20251;-78
2023/10/07 21:51:32;;;;;;;7.93;4.10;;;11.10;1.00;;;;;;10442768;28;20197;-78
2023/10/07 21:56:53;;;;;;;6.07;3.33;;;11.10;1.00;;;;;;10488343;28;20197;-78
2023/10/07 22:02:16;;;;;;;6.17;2.97;;;11.10;1.00;;;;;;10442304;28;20308;-78
2023/10/07 22:07:37;;;;;;;8.23;2.47;;;11.10;1.00;;;;;;10441716;28;20484;-78
2023/10/07 22:13:00;;;;;;;6.37;2.93;;;11.10;1.00;;;;;;10471168;28;20262;-78
2023/10/07 22:18:23;;;;;;;6.93;3.40;;;11.10;1.00;;;;;;10442788;28;20497;-79
2023/10/07 22:23:44;;;;;;;4.80;2.83;;;11.00;1.00;;;;;;10441948;28;20232;-78
2023/10/07 22:29:06;;;;;;;4.27;1.93;;;10.90;1.00;;;;;;10458326;28;20504;-78
2023/10/07 22:34:28;;;;;;;3.17;2.07;;;10.90;1.00;;;;;;10442433;28;20231;-79
2023/10/07 22:39:56;;;;;;;3.90;2.03;;;10.90;1.00;;;;;;10456752;28;20284;-78
2023/10/07 22:45:18;;;;;;;2.10;1.50;;;10.90;1.00;;;;;;10474146;28;20201;-78
2023/10/07 22:50:44;;;;;;;2.40;1.50;;;10.80;1.00;;;;;;10437779;28;20204;-77
2023/10/07 22:56:14;;;;;;;2.23;1.13;;;10.70;1.00;;;;;;10441978;28;20451;-78
2023/10/07 23:07:23;;;;;;;2.40;1.53;;;10.60;1.00;;;;;;10468678;28;20232;-78
2023/10/07 23:12:44;;;;;;;2.40;1.00;;;10.60;1.00;;;;;;10475184;28;20257;-78
2023/10/07 23:18:06;;;;;;;3.00;1.70;;;10.60;1.00;;;;;;10448463;28;20199;-78
2023/10/07 23:23:41;;;;;;;4.83;1.80;;;10.50;1.00;;;;;;10399691;28;20218;-77
2023/10/07 23:29:06;;;;;;;2.23;1.23;;;10.60;1.00;;;;;;10417302;28;20202;-78
2023/10/07 23:34:28;;;;;;;4.33;0.80;;;10.50;1.00;;;;;;10440313;28;20194;-79
2023/10/07 23:39:57;;;;;;;1.70;0.80;;;10.50;1.00;;;;;;10438798;28;20508;-79
2023/10/07 23:45:19;;;;;;;1.80;0.90;;;10.50;1.00;;;;;;10439825;28;20202;-78
2023/10/07 23:50:47;;;;;;;2.03;1.10;;;10.30;1.00;;;;;;10438878;28;20190;-76
2023/10/07 23:56:10;;;;;;;0.90;0.80;;;10.30;1.00;;;;;;10461113;28;20205;-78
